createdAt,value
2018-11-04T00:02:49.840Z,70.83
2018-11-04T00:07:52.327Z,71.10
2018-11-04T00:12:54.790Z,71.13
2018-11-04T00:17:57.398Z,71.83
2018-11-04T00:22:59.905Z,71.78
2018-11-04T00:28:02.388Z,71.65
2018-11-04T00:33:05.091Z,71.82
2018-11-04T00:38:07.671Z,71.81
2018-11-04T00:43:10.102Z,71.74
2018-11-04T00:48:12.920Z,71.97
2018-11-04T00:53:15.287Z,72.09
2018-11-04T00:58:17.720Z,72.40
2018-11-04T01:03:20.127Z,72.34
2018-11-04T01:08:22.996Z,72.38
2018-11-04T01:13:25.352Z,72.27
2018-11-04T01:18:27.815Z,72.83
2018-11-04T01:23:30.395Z,73.21
2018-11-04T01:28:32.794Z,72.76
2018-11-04T01:33:35.425Z,72.71
2018-11-04T01:38:37.855Z,72.58
2018-11-04T01:43:40.303Z,72.92
2018-11-04T01:48:42.757Z,73.11
2018-11-04T01:53:45.410Z,72.94
2018-11-04T01:58:48.172Z,73.18
2018-11-04T02:03:50.568Z,72.71
2018-11-04T02:08:52.917Z,72.89
2018-11-04T02:13:55.605Z,73.21
2018-11-04T02:18:58.133Z,73.16
2018-11-04T02:24:00.616Z,73.26
2018-11-04T02:29:03.123Z,73.33
2018-11-04T02:34:05.571Z,73.75
2018-11-04T02:39:08.288Z,73.46
2018-11-04T02:44:10.713Z,73.29
2018-11-04T02:49:13.091Z,74.12
2018-11-04T02:54:15.593Z,73.64
2018-11-04T02:59:18.068Z,74.00
2018-11-04T03:04:21.370Z,74.22
2018-11-04T03:09:23.934Z,73.55
2018-11-04T03:15:29.669Z,74.31
2018-11-04T03:20:32.156Z,73.47
2018-11-04T03:25:35.025Z,74.61
2018-11-04T03:30:37.768Z,74.35
2018-11-04T03:35:40.200Z,74.24
2018-11-04T03:40:42.694Z,74.87
2018-11-04T03:45:45.107Z,74.06
2018-11-04T03:50:47.493Z,74.28
2018-11-04T03:55:49.958Z,74.89
2018-11-04T04:00:52.380Z,74.90
2018-11-04T04:05:54.872Z,75.13
2018-11-04T04:10:57.390Z,75.17
2018-11-04T04:15:59.836Z,75.64
2018-11-04T04:21:08.432Z,75.26
2018-11-04T04:26:11.636Z,74.99
2018-11-04T04:31:14.095Z,75.36
2018-11-04T04:36:16.523Z,75.62
2018-11-04T04:41:18.955Z,75.63
2018-11-04T04:46:21.293Z,76.04
2018-11-04T04:51:23.737Z,76.05
2018-11-04T04:56:26.096Z,76.74
2018-11-04T05:01:28.571Z,76.15
2018-11-04T05:06:30.963Z,76.28
2018-11-04T05:11:33.375Z,76.52
2018-11-04T05:16:35.763Z,76.35
2018-11-04T05:21:38.255Z,76.57
2018-11-04T05:26:40.749Z,76.64
2018-11-04T05:31:43.172Z,76.83
2018-11-04T05:36:45.575Z,76.89
2018-11-04T05:41:48.027Z,76.48
2018-11-04T05:46:50.407Z,76.85
2018-11-04T05:51:52.827Z,77.04
2018-11-04T05:56:55.217Z,77.36
2018-11-04T06:01:57.553Z,77.07
2018-11-04T06:06:59.935Z,77.40
2018-11-04T06:12:02.499Z,77.67
2018-11-04T06:17:04.903Z,77.24
2018-11-04T06:22:08.299Z,77.19
2018-11-04T06:27:10.660Z,77.47
2018-11-04T06:32:13.152Z,77.37
2018-11-04T06:37:15.559Z,77.43
2018-11-04T06:42:18.140Z,77.49
2018-11-04T06:47:20.543Z,77.61
2018-11-04T06:52:23.869Z,77.17
2018-11-04T06:57:26.357Z,77.50
2018-11-04T07:02:28.843Z,77.35
2018-11-04T07:07:31.241Z,77.84
2018-11-04T07:12:33.695Z,77.92
2018-11-04T07:17:36.072Z,77.72
2018-11-04T07:22:38.530Z,77.62
2018-11-04T07:27:41.075Z,77.77
2018-11-04T07:32:46.259Z,78.08
2018-11-04T07:37:48.641Z,78.10
2018-11-04T07:42:51.086Z,77.43
2018-11-04T07:47:53.488Z,78.06
2018-11-04T07:52:55.873Z,78.16
2018-11-04T07:57:58.276Z,77.18
2018-11-04T08:03:00.677Z,77.29
2018-11-04T08:08:03.028Z,77.32
2018-11-04T08:13:06.080Z,77.47
2018-11-04T08:18:08.893Z,77.72
2018-11-04T08:23:11.342Z,78.01
2018-11-04T08:28:13.764Z,77.37
2018-11-04T08:33:16.195Z,77.76
2018-11-04T08:38:18.687Z,78.12
2018-11-04T08:43:21.073Z,77.53
2018-11-04T08:48:23.596Z,77.53
2018-11-04T08:53:26.002Z,77.55
2018-11-04T08:58:28.538Z,77.60
2018-11-04T09:03:30.936Z,77.79
2018-11-04T09:08:33.535Z,77.69
2018-11-04T09:13:36.778Z,77.61
2018-11-04T09:18:39.444Z,77.64
2018-11-04T09:23:42.552Z,77.39
2018-11-04T09:28:45.190Z,77.84
2018-11-04T09:33:48.730Z,77.81
2018-11-04T09:38:51.498Z,77.75
2018-11-04T09:43:53.918Z,77.47
2018-11-04T09:48:56.487Z,77.26
2018-11-04T09:53:59.150Z,77.91
2018-11-04T09:59:01.577Z,77.72
2018-11-04T10:04:04.467Z,77.85
2018-11-04T10:09:08.229Z,77.91
2018-11-04T10:14:11.016Z,77.60
2018-11-04T10:19:15.356Z,77.42
2018-11-04T10:24:17.644Z,77.44
2018-11-04T10:29:20.219Z,77.91
2018-11-04T10:34:22.716Z,78.02
2018-11-04T10:39:31.794Z,77.70
2018-11-04T10:44:34.274Z,77.81
2018-11-04T10:49:37.298Z,77.69
2018-11-04T10:54:39.934Z,77.90
2018-11-04T10:59:42.549Z,77.79
2018-11-04T11:04:45.153Z,78.11
2018-11-04T11:09:49.663Z,77.86
2018-11-04T11:14:52.242Z,77.64
2018-11-04T11:19:54.754Z,77.43
2018-11-04T11:24:57.397Z,77.15
2018-11-04T11:30:00.066Z,77.34
2018-11-04T11:35:02.775Z,77.51
2018-11-04T11:40:06.108Z,77.91
2018-11-04T11:45:09.466Z,77.32
2018-11-04T11:50:11.831Z,77.47
2018-11-04T11:55:14.548Z,77.72
2018-11-04T12:00:16.947Z,77.74
2018-11-04T12:05:19.820Z,77.20
2018-11-04T12:10:22.450Z,77.36
2018-11-04T12:15:24.873Z,77.35
2018-11-04T12:20:27.432Z,77.95
2018-11-04T12:25:29.878Z,77.91
2018-11-04T12:30:32.443Z,77.63
2018-11-04T12:35:34.963Z,78.06
2018-11-04T12:40:37.521Z,77.03
2018-11-04T12:45:40.057Z,77.63
2018-11-04T12:50:42.535Z,78.59
2018-11-04T12:55:45.173Z,77.35
2018-11-04T13:00:47.598Z,77.84
2018-11-04T13:05:50.292Z,77.70
2018-11-04T13:10:52.815Z,78.10
2018-11-04T13:15:55.412Z,77.91
2018-11-04T13:20:58.312Z,77.48
2018-11-04T13:26:00.749Z,77.32
2018-11-04T13:31:03.446Z,77.05
2018-11-04T13:36:06.318Z,77.95
2018-11-04T13:41:08.725Z,77.79
2018-11-04T13:46:11.339Z,77.03
2018-11-04T13:51:14.366Z,76.13
2018-11-04T13:56:20.185Z,76.16
2018-11-04T14:01:22.627Z,76.54
2018-11-04T14:06:25.015Z,77.05
2018-11-04T14:11:27.475Z,76.54
2018-11-04T14:16:29.968Z,77.46
2018-11-04T14:21:32.372Z,77.42
2018-11-04T14:26:34.783Z,77.36
2018-11-04T14:31:37.581Z,77.17
2018-11-04T14:36:40.481Z,76.87
2018-11-04T14:41:42.807Z,77.01
2018-11-04T14:46:45.672Z,77.07
2018-11-04T14:51:48.126Z,77.13
2018-11-04T14:56:50.572Z,77.45
2018-11-04T15:01:52.992Z,77.87
2018-11-04T15:06:55.550Z,78.24
2018-11-04T15:11:57.984Z,77.97
2018-11-04T15:17:00.446Z,78.16
2018-11-04T15:22:02.929Z,77.95
2018-11-04T15:27:05.960Z,77.73
2018-11-04T15:32:08.441Z,77.60
2018-11-04T15:37:11.038Z,77.21
2018-11-04T15:42:13.408Z,77.57
2018-11-04T15:47:15.795Z,78.58
2018-11-04T15:52:18.180Z,78.40
2018-11-04T15:57:20.768Z,77.69
2018-11-04T16:02:23.116Z,77.73
2018-11-04T16:07:25.707Z,78.45
2018-11-04T16:12:28.081Z,78.59
2018-11-04T16:17:30.484Z,78.66
2018-11-04T16:22:32.911Z,78.71
2018-11-04T16:27:35.259Z,78.90
2018-11-04T16:32:37.972Z,78.51
2018-11-04T16:37:41.235Z,78.63
2018-11-04T16:42:43.538Z,78.50
2018-11-04T16:47:45.960Z,78.93
2018-11-04T16:52:48.363Z,78.62
2018-11-04T16:57:50.757Z,78.82
2018-11-04T17:02:53.219Z,78.67
2018-11-04T17:07:55.776Z,78.72
2018-11-04T17:12:59.126Z,78.95
2018-11-04T17:18:01.601Z,78.50
2018-11-04T17:23:04.157Z,78.50
2018-11-04T17:28:06.528Z,78.64
2018-11-04T17:33:09.001Z,79.11
2018-11-04T17:38:11.374Z,79.19
2018-11-04T17:43:13.943Z,79.19
2018-11-04T17:48:23.086Z,78.99
2018-11-04T17:53:25.517Z,78.97
2018-11-04T17:58:27.894Z,79.10
2018-11-04T18:03:30.357Z,79.32
2018-11-04T18:08:32.799Z,78.55
2018-11-04T18:13:35.285Z,78.24
2018-11-04T18:18:37.732Z,78.02
2018-11-04T18:23:40.155Z,77.25
2018-11-04T18:28:42.506Z,77.13
2018-11-04T18:33:44.927Z,77.09
2018-11-04T18:38:47.432Z,77.03
2018-11-04T18:43:49.934Z,77.42
2018-11-04T18:48:52.681Z,77.21
2018-11-04T18:53:55.864Z,77.36
2018-11-04T18:58:58.301Z,77.58
2018-11-04T19:04:00.699Z,77.96
2018-11-04T19:09:04.816Z,77.50
2018-11-04T19:14:07.629Z,77.64
2018-11-04T19:19:10.224Z,77.72
2018-11-04T19:24:12.988Z,77.12
2018-11-04T19:29:15.392Z,77.88
2018-11-04T19:34:18.423Z,77.72
2018-11-04T19:39:20.970Z,77.50
2018-11-04T19:44:23.563Z,77.41
2018-11-04T19:49:26.120Z,78.06
2018-11-04T19:54:28.617Z,76.99
2018-11-04T19:59:31.223Z,77.64
2018-11-04T20:04:33.911Z,77.76
2018-11-04T20:09:36.379Z,77.38
2018-11-04T20:14:39.039Z,77.67
2018-11-04T20:19:46.985Z,77.55
2018-11-04T20:24:55.078Z,77.55
2018-11-04T20:29:57.533Z,78.26
2018-11-04T20:34:59.998Z,77.76
2018-11-04T20:40:08.279Z,77.48
2018-11-04T20:45:11.191Z,77.97
2018-11-04T20:50:19.344Z,77.93
2018-11-04T20:55:21.724Z,77.62
2018-11-04T21:00:24.197Z,78.08
2018-11-04T21:05:26.578Z,77.80
2018-11-04T21:10:29.001Z,78.11
2018-11-04T21:15:31.402Z,77.92
2018-11-04T21:20:33.793Z,78.13
2018-11-04T21:25:36.376Z,77.78
2018-11-04T21:30:38.695Z,77.88
2018-11-04T21:36:45.550Z,78.03
2018-11-04T21:41:47.948Z,77.53
2018-11-04T21:46:50.319Z,78.06
2018-11-04T21:51:52.723Z,78.28
2018-11-04T21:56:55.085Z,78.02
2018-11-04T22:01:57.533Z,77.86
2018-11-04T22:06:59.975Z,78.35
2018-11-04T22:12:02.590Z,78.16
2018-11-04T22:17:05.244Z,77.96
2018-11-04T22:22:07.608Z,78.05
2018-11-04T22:27:10.027Z,77.78
2018-11-04T22:32:12.405Z,78.22
2018-11-04T22:37:14.820Z,77.86
2018-11-04T22:42:17.273Z,78.27
2018-11-04T22:47:20.367Z,78.55
2018-11-04T22:52:22.817Z,78.08
2018-11-04T22:57:25.169Z,77.60
2018-11-04T23:02:27.552Z,78.24
2018-11-04T23:07:30.047Z,78.33
2018-11-04T23:12:32.526Z,78.39
2018-11-04T23:17:34.961Z,78.49
2018-11-04T23:22:37.554Z,78.70
2018-11-04T23:27:41.328Z,78.48
2018-11-04T23:32:45.469Z,78.95
2018-11-04T23:37:48.048Z,78.61
2018-11-04T23:42:50.519Z,78.77
2018-11-04T23:47:53.021Z,78.74
2018-11-04T23:52:55.409Z,78.45
2018-11-04T23:57:57.797Z,78.85
